createdAt,value
2022-12-03T00:00:55.773Z,16.20
2022-12-03T00:01:55.686Z,16.90
2022-12-03T00:02:55.848Z,15.90
2022-12-03T00:03:55.847Z,17.40
2022-12-03T00:04:55.835Z,17.30
2022-12-03T00:05:55.649Z,17.10
2022-12-03T00:06:55.621Z,17.40
2022-12-03T00:07:55.682Z,17.00
2022-12-03T00:08:55.598Z,17.00
2022-12-03T00:09:55.593Z,16.80
2022-12-03T00:10:55.584Z,16.90
2022-12-03T00:11:55.570Z,17.10
2022-12-03T00:12:55.544Z,16.50
2022-12-03T00:13:55.532Z,17.30
2022-12-03T00:14:55.806Z,16.20
2022-12-03T00:15:55.570Z,17.20
2022-12-03T00:16:55.506Z,15.90
2022-12-03T00:17:55.490Z,18.00
2022-12-03T00:18:55.462Z,16.80
2022-12-03T00:19:55.454Z,17.40
2022-12-03T00:20:55.444Z,17.70
2022-12-03T00:21:55.428Z,18.20
2022-12-03T00:22:55.428Z,18.30
2022-12-03T00:23:55.400Z,17.40
2022-12-03T00:24:55.860Z,17.80
2022-12-03T00:25:55.377Z,20.00
2022-12-03T00:26:55.361Z,19.90
2022-12-03T00:27:55.371Z,19.60
2022-12-03T00:28:55.348Z,17.90
2022-12-03T00:29:55.331Z,17.80
2022-12-03T00:30:55.382Z,17.10
2022-12-03T00:31:55.307Z,16.50
2022-12-03T00:32:55.294Z,16.80
2022-12-03T00:33:55.272Z,17.00
2022-12-03T00:34:55.564Z,16.80
2022-12-03T00:35:55.252Z,16.60
2022-12-03T00:36:55.235Z,16.20
2022-12-03T00:37:55.235Z,16.80
2022-12-03T00:38:55.206Z,16.30
2022-12-03T00:39:55.211Z,16.20
2022-12-03T00:40:55.180Z,17.10
2022-12-03T00:41:55.186Z,17.60
2022-12-03T00:42:55.167Z,17.00
2022-12-03T00:43:55.149Z,16.50
2022-12-03T00:44:55.484Z,16.10
2022-12-03T00:45:55.117Z,16.60
2022-12-03T00:46:55.223Z,15.70
2022-12-03T00:47:55.103Z,15.80
2022-12-03T00:48:55.105Z,15.80
2022-12-03T00:49:55.080Z,16.60
2022-12-03T00:50:55.077Z,16.20
2022-12-03T00:51:55.043Z,16.70
2022-12-03T00:52:55.045Z,16.30
2022-12-03T00:53:55.019Z,17.00
2022-12-03T00:54:55.434Z,16.50
2022-12-03T00:55:55.000Z,16.20
2022-12-03T00:56:54.991Z,16.80
2022-12-03T00:57:55.068Z,17.10
2022-12-03T00:58:54.988Z,16.60
2022-12-03T00:59:54.958Z,16.90
2022-12-03T01:00:54.956Z,17.90
2022-12-03T01:01:55.005Z,17.40
2022-12-03T01:02:54.915Z,17.00
2022-12-03T01:03:54.894Z,16.60
2022-12-03T01:04:55.201Z,16.50
2022-12-03T01:05:54.888Z,17.40
2022-12-03T01:06:54.853Z,16.80
2022-12-03T01:07:55.003Z,17.00
2022-12-03T01:08:54.851Z,16.20
2022-12-03T01:09:54.858Z,17.10
2022-12-03T01:10:54.802Z,16.70
2022-12-03T01:11:54.846Z,15.90
2022-12-03T01:12:54.797Z,15.90
2022-12-03T01:13:54.761Z,16.20
2022-12-03T01:14:55.177Z,15.60
2022-12-03T01:15:54.786Z,16.20
2022-12-03T01:16:54.733Z,16.50
2022-12-03T01:17:54.724Z,15.10
2022-12-03T01:18:54.729Z,16.60
2022-12-03T01:19:54.712Z,14.90
2022-12-03T01:20:54.671Z,15.40
2022-12-03T01:21:54.667Z,15.40
2022-12-03T01:22:54.656Z,16.10
2022-12-03T01:23:54.642Z,15.80
2022-12-03T01:24:54.872Z,15.20
2022-12-03T01:25:54.615Z,15.20
2022-12-03T01:26:54.598Z,15.20
2022-12-03T01:27:54.600Z,15.30
2022-12-03T01:28:54.573Z,16.00
2022-12-03T01:29:54.601Z,15.70
2022-12-03T01:30:54.610Z,15.60
2022-12-03T01:31:54.553Z,15.30
2022-12-03T01:32:54.541Z,15.40
2022-12-03T01:33:54.513Z,15.90
2022-12-03T01:34:54.900Z,15.20
2022-12-03T01:35:54.524Z,16.00
2022-12-03T01:36:54.482Z,15.90
2022-12-03T01:37:54.463Z,15.90
2022-12-03T01:38:54.451Z,16.60
2022-12-03T01:39:54.470Z,15.70
2022-12-03T01:40:54.434Z,15.10
2022-12-03T01:41:54.449Z,15.20
2022-12-03T01:42:54.395Z,15.50
2022-12-03T01:43:54.393Z,15.70
2022-12-03T01:44:54.741Z,16.00
2022-12-03T01:45:54.364Z,15.10
2022-12-03T01:46:54.454Z,16.20
2022-12-03T01:47:54.364Z,15.00
2022-12-03T01:48:54.321Z,15.20
2022-12-03T01:49:54.321Z,15.80
2022-12-03T01:50:54.323Z,16.80
2022-12-03T01:51:54.316Z,18.00
2022-12-03T01:52:54.272Z,19.80
2022-12-03T01:53:54.292Z,21.50
2022-12-03T01:54:54.514Z,21.60
2022-12-03T01:55:54.251Z,19.70
2022-12-03T01:56:54.231Z,25.70
2022-12-03T01:57:54.217Z,30.60
2022-12-03T01:58:54.198Z,36.20
2022-12-03T01:59:54.218Z,19.90
2022-12-03T02:00:54.187Z,15.30
2022-12-03T02:01:54.201Z,15.10
2022-12-03T02:02:54.142Z,15.00
2022-12-03T02:03:54.216Z,16.20
2022-12-03T02:04:54.621Z,14.70
2022-12-03T02:05:54.165Z,15.00
2022-12-03T02:06:54.109Z,14.80
2022-12-03T02:07:54.217Z,13.80
2022-12-03T02:08:54.097Z,14.10
2022-12-03T02:09:54.071Z,14.00
2022-12-03T02:10:54.053Z,14.50
2022-12-03T02:11:54.036Z,14.20
2022-12-03T02:12:54.043Z,14.20
2022-12-03T02:13:54.018Z,14.40
2022-12-03T02:14:54.316Z,14.10
2022-12-03T02:15:54.051Z,14.30
2022-12-03T02:16:54.020Z,15.40
2022-12-03T02:17:53.965Z,14.20
2022-12-03T02:18:53.977Z,14.80
2022-12-03T02:19:53.952Z,14.50
2022-12-03T02:20:53.935Z,14.00
2022-12-03T02:21:53.932Z,14.50
2022-12-03T02:22:53.897Z,14.50
2022-12-03T02:23:53.893Z,14.80
2022-12-03T02:24:54.163Z,15.10
2022-12-03T02:25:53.863Z,14.40
2022-12-03T02:26:53.855Z,14.00
2022-12-03T02:27:53.843Z,13.80
2022-12-03T02:28:53.833Z,15.10
2022-12-03T02:29:53.820Z,14.10
2022-12-03T02:30:53.825Z,15.50
2022-12-03T02:31:53.875Z,15.10
2022-12-03T02:32:53.779Z,13.90
2022-12-03T02:33:53.768Z,14.80
2022-12-03T02:34:54.081Z,14.40
2022-12-03T02:35:53.752Z,15.30
2022-12-03T02:36:53.750Z,15.00
2022-12-03T02:37:53.726Z,14.30
2022-12-03T02:38:53.692Z,14.80
2022-12-03T02:39:53.711Z,14.90
2022-12-03T02:40:53.671Z,14.10
2022-12-03T02:41:53.704Z,15.00
2022-12-03T02:42:53.859Z,14.70
2022-12-03T02:43:53.641Z,14.70
2022-12-03T02:44:53.884Z,14.60
2022-12-03T02:45:53.604Z,14.40
2022-12-03T02:46:53.717Z,14.30
2022-12-03T02:47:53.627Z,14.30
2022-12-03T02:48:53.569Z,14.40
2022-12-03T02:49:53.576Z,14.30
2022-12-03T02:50:53.542Z,14.70
2022-12-03T02:51:53.532Z,14.90
2022-12-03T02:52:53.543Z,15.30
2022-12-03T02:53:53.521Z,15.10
2022-12-03T02:54:53.697Z,14.90
2022-12-03T02:55:53.485Z,14.60
2022-12-03T02:56:53.481Z,15.20
2022-12-03T02:57:53.484Z,15.20
2022-12-03T02:58:53.455Z,14.60
2022-12-03T02:59:53.456Z,14.70
2022-12-03T03:00:53.554Z,14.00
2022-12-03T03:01:53.439Z,15.10
2022-12-03T03:02:53.404Z,14.50
2022-12-03T03:03:53.400Z,14.80
2022-12-03T03:04:53.683Z,14.30
2022-12-03T03:05:53.376Z,14.10
2022-12-03T03:06:53.333Z,13.90
2022-12-03T03:07:53.406Z,15.00
2022-12-03T03:08:53.344Z,15.10
2022-12-03T03:09:53.299Z,14.40
2022-12-03T03:10:53.299Z,15.50
2022-12-03T03:11:53.317Z,14.70
2022-12-03T03:12:53.268Z,15.10
2022-12-03T03:13:53.290Z,14.50
2022-12-03T03:14:53.571Z,15.20
2022-12-03T03:15:53.312Z,15.30
2022-12-03T03:16:53.347Z,14.20
2022-12-03T03:17:53.205Z,14.60
2022-12-03T03:18:53.191Z,15.00
2022-12-03T03:19:53.199Z,14.90
2022-12-03T03:20:53.186Z,14.90
2022-12-03T03:21:53.153Z,15.40
2022-12-03T03:22:53.178Z,15.30
2022-12-03T03:23:53.147Z,14.50
2022-12-03T03:24:53.407Z,14.50
2022-12-03T03:25:53.132Z,15.60
2022-12-03T03:26:53.098Z,15.00
2022-12-03T03:27:53.121Z,15.80
2022-12-03T03:28:53.096Z,14.90
2022-12-03T03:29:53.069Z,15.40
2022-12-03T03:30:53.032Z,15.80
2022-12-03T03:31:53.095Z,14.70
2022-12-03T03:32:53.053Z,15.00
2022-12-03T03:33:52.994Z,15.60
2022-12-03T03:34:53.395Z,16.20
2022-12-03T03:35:52.988Z,14.80
2022-12-03T03:36:52.958Z,14.40
2022-12-03T03:37:52.945Z,15.10
2022-12-03T03:38:52.973Z,14.70
2022-12-03T03:39:52.943Z,15.20
2022-12-03T03:40:52.916Z,14.30
2022-12-03T03:41:52.892Z,14.90
2022-12-03T03:42:52.907Z,14.20
2022-12-03T03:43:52.877Z,15.00
2022-12-03T03:44:53.169Z,14.80
2022-12-03T03:45:52.913Z,14.90
2022-12-03T03:46:52.827Z,15.30
2022-12-03T03:47:52.851Z,15.00
2022-12-03T03:48:52.801Z,14.50
2022-12-03T03:49:52.814Z,14.30
2022-12-03T03:50:52.806Z,14.50
2022-12-03T03:51:52.831Z,14.90
2022-12-03T03:52:52.758Z,14.80
2022-12-03T03:53:52.768Z,14.80
2022-12-03T03:54:53.100Z,14.20
2022-12-03T03:55:52.727Z,14.90
2022-12-03T03:56:52.714Z,14.40
2022-12-03T03:57:52.692Z,14.70
2022-12-03T03:58:52.692Z,14.70
2022-12-03T03:59:52.663Z,14.50
2022-12-03T04:00:52.733Z,14.90
2022-12-03T04:01:52.637Z,15.70
2022-12-03T04:02:52.629Z,15.60
2022-12-03T04:03:52.672Z,15.30
2022-12-03T04:04:53.175Z,14.70
2022-12-03T04:05:52.587Z,15.00
2022-12-03T04:06:52.587Z,15.30
2022-12-03T04:07:52.719Z,14.80
2022-12-03T04:08:52.551Z,15.20
2022-12-03T04:09:52.541Z,15.60
2022-12-03T04:10:52.553Z,15.80
2022-12-03T04:11:52.520Z,17.00
2022-12-03T04:12:52.530Z,16.40
2022-12-03T04:13:52.508Z,20.70
2022-12-03T04:14:52.821Z,18.20
2022-12-03T04:15:52.461Z,21.30
2022-12-03T04:16:52.519Z,20.60
2022-12-03T04:17:52.445Z,17.00
2022-12-03T04:18:52.448Z,19.30
2022-12-03T04:19:52.425Z,22.00
2022-12-03T04:20:52.397Z,19.00
2022-12-03T04:21:52.430Z,17.70
2022-12-03T04:22:52.386Z,15.60
2022-12-03T04:23:52.362Z,14.90
2022-12-03T04:24:52.819Z,14.40
2022-12-03T04:25:52.370Z,14.40
2022-12-03T04:26:52.335Z,14.30
2022-12-03T04:27:52.313Z,14.70
2022-12-03T04:28:52.296Z,14.30
2022-12-03T04:29:52.281Z,14.30
2022-12-03T04:30:52.393Z,14.60
2022-12-03T04:31:52.253Z,13.80
2022-12-03T04:32:52.253Z,13.80
2022-12-03T04:33:52.249Z,13.30
2022-12-03T04:34:52.791Z,13.10
2022-12-03T04:35:52.316Z,13.80
2022-12-03T04:36:52.200Z,13.80
2022-12-03T04:37:52.190Z,13.40
2022-12-03T04:38:52.180Z,13.10
2022-12-03T04:39:52.168Z,13.90
2022-12-03T04:40:52.173Z,14.00
2022-12-03T04:41:52.143Z,13.80
2022-12-03T04:42:52.208Z,13.20
2022-12-03T04:43:52.194Z,13.10
2022-12-03T04:44:52.597Z,13.50
2022-12-03T04:45:52.126Z,13.30
2022-12-03T04:46:52.084Z,13.30
2022-12-03T04:47:52.055Z,13.20
2022-12-03T04:48:52.077Z,13.00
2022-12-03T04:49:52.024Z,13.20
2022-12-03T04:50:52.065Z,12.50
2022-12-03T04:51:51.998Z,13.00
2022-12-03T04:52:51.993Z,12.60
2022-12-03T04:53:52.071Z,12.80
2022-12-03T04:54:52.279Z,12.30
2022-12-03T04:55:51.970Z,12.30
2022-12-03T04:56:51.945Z,12.30
2022-12-03T04:57:51.935Z,13.10
2022-12-03T04:58:51.922Z,13.20
2022-12-03T04:59:51.914Z,13.10
2022-12-03T05:00:51.970Z,12.20
2022-12-03T05:01:51.937Z,12.60
2022-12-03T05:02:51.950Z,12.40
2022-12-03T05:03:51.859Z,12.60
2022-12-03T05:04:52.243Z,12.80
2022-12-03T05:05:51.828Z,12.40
2022-12-03T05:06:51.825Z,13.40
2022-12-03T05:07:51.915Z,13.20
2022-12-03T05:08:51.807Z,12.40
2022-12-03T05:09:51.797Z,13.60
2022-12-03T05:10:51.789Z,13.20
2022-12-03T05:11:51.755Z,13.20
2022-12-03T05:12:51.757Z,12.60
2022-12-03T05:13:51.759Z,13.00
2022-12-03T05:14:52.216Z,12.80
2022-12-03T05:15:51.705Z,12.70
2022-12-03T05:16:51.768Z,12.10
2022-12-03T05:17:51.669Z,12.60
2022-12-03T05:18:51.671Z,12.30
2022-12-03T05:19:51.649Z,12.40
2022-12-03T05:20:53.659Z,13.00
2022-12-03T05:21:51.624Z,12.60
2022-12-03T05:22:51.613Z,12.40
2022-12-03T05:23:51.602Z,12.10
2022-12-03T05:24:52.000Z,12.60
2022-12-03T05:25:51.586Z,12.20
2022-12-03T05:26:51.556Z,12.10
2022-12-03T05:27:51.540Z,12.60
2022-12-03T05:28:51.548Z,12.20
2022-12-03T05:29:51.525Z,12.80
2022-12-03T05:30:51.567Z,12.70
2022-12-03T05:31:51.518Z,12.60
2022-12-03T05:32:51.492Z,12.60
2022-12-03T05:33:51.469Z,12.90
2022-12-03T05:34:51.824Z,11.80
2022-12-03T05:35:51.472Z,12.00
2022-12-03T05:36:51.451Z,12.20
2022-12-03T05:37:51.429Z,12.90
2022-12-03T05:38:51.419Z,12.80
2022-12-03T05:39:51.422Z,12.60
2022-12-03T05:40:51.396Z,12.50
2022-12-03T05:41:51.471Z,13.00
2022-12-03T05:42:51.411Z,12.40
2022-12-03T05:43:51.344Z,12.90
2022-12-03T05:44:51.711Z,12.80
2022-12-03T05:45:51.378Z,12.60
2022-12-03T05:46:51.310Z,13.30
2022-12-03T05:47:59.829Z,12.90
2022-12-03T05:48:51.480Z,13.60
2022-12-03T05:49:51.399Z,13.60
2022-12-03T05:50:51.294Z,13.60
2022-12-03T05:51:56.716Z,13.00
2022-12-03T05:52:51.234Z,12.80
2022-12-03T05:53:51.308Z,13.30
2022-12-03T05:55:07.789Z,13.40
2022-12-03T05:55:51.244Z,13.10
2022-12-03T05:56:51.210Z,13.70
2022-12-03T05:57:51.192Z,13.00
2022-12-03T05:59:07.092Z,13.40
2022-12-03T05:59:51.415Z,12.90
2022-12-03T06:00:51.161Z,13.50
2022-12-03T06:01:51.114Z,13.40
2022-12-03T06:02:51.282Z,13.50
2022-12-03T06:03:51.214Z,13.10
2022-12-03T06:04:51.320Z,13.30
2022-12-03T06:06:02.446Z,16.80
2022-12-03T06:08:28.987Z,24.70
2022-12-03T06:09:29.804Z,21.30
2022-12-03T06:10:29.808Z,18.60
2022-12-03T06:13:58.239Z,14.90
2022-12-03T06:14:59.202Z,16.00
2022-12-03T06:17:43.154Z,14.20
2022-12-03T06:18:43.839Z,14.80
2022-12-03T06:19:43.539Z,18.50
2022-12-03T06:22:04.673Z,14.70
2022-12-03T06:23:05.652Z,14.70
2022-12-03T06:24:05.641Z,14.80
2022-12-03T06:25:07.190Z,14.00
2022-12-03T06:26:05.611Z,14.60
2022-12-03T06:27:05.610Z,14.40
2022-12-03T06:28:05.592Z,14.20
2022-12-03T06:29:05.601Z,14.60
2022-12-03T06:30:05.583Z,14.80
2022-12-03T06:31:05.635Z,13.60
2022-12-03T06:32:05.545Z,14.00
2022-12-03T06:33:05.538Z,14.90
2022-12-03T06:34:05.508Z,14.00
2022-12-03T06:35:05.512Z,14.70
2022-12-03T06:36:05.484Z,13.90
2022-12-03T06:37:05.478Z,14.10
2022-12-03T06:38:05.462Z,14.70
2022-12-03T06:39:05.450Z,13.60
2022-12-03T06:40:05.442Z,14.10
2022-12-03T06:41:05.425Z,14.20
2022-12-03T06:42:05.435Z,13.30
2022-12-03T06:43:05.437Z,14.50
2022-12-03T06:44:05.407Z,14.30
2022-12-03T06:45:05.373Z,14.60
2022-12-03T06:46:05.405Z,13.50
2022-12-03T06:47:05.363Z,14.10
2022-12-03T06:48:05.350Z,14.20
2022-12-03T06:49:05.323Z,14.00
2022-12-03T06:50:05.315Z,13.50
2022-12-03T06:51:05.314Z,14.10
2022-12-03T06:52:05.305Z,13.40
2022-12-03T06:53:05.276Z,13.90
2022-12-03T06:54:05.257Z,14.20
2022-12-03T06:55:05.255Z,14.90
2022-12-03T06:56:05.243Z,14.00
2022-12-03T06:57:05.245Z,14.50
2022-12-03T06:58:05.227Z,14.70
2022-12-03T06:59:05.200Z,14.70
2022-12-03T07:00:05.217Z,14.80
2022-12-03T07:01:05.197Z,14.90
2022-12-03T07:02:05.294Z,14.80
2022-12-03T07:03:05.269Z,15.20
2022-12-03T07:04:05.145Z,14.30
2022-12-03T07:05:05.129Z,14.60
2022-12-03T07:06:05.103Z,13.90
2022-12-03T07:07:05.092Z,14.00
2022-12-03T07:08:05.173Z,14.30
2022-12-03T07:09:05.078Z,18.90
2022-12-03T07:10:05.070Z,18.60
2022-12-03T07:11:05.052Z,16.60
2022-12-03T07:12:05.049Z,14.90
2022-12-03T07:13:05.024Z,14.90
2022-12-03T07:14:05.943Z,16.90
2022-12-03T07:15:04.993Z,24.20
2022-12-03T07:16:05.060Z,17.80
2022-12-03T07:17:04.981Z,16.00
2022-12-03T07:18:04.949Z,15.40
2022-12-03T07:19:04.975Z,15.40
2022-12-03T07:20:04.933Z,14.80
2022-12-03T07:21:04.945Z,15.20
2022-12-03T07:22:04.943Z,15.00
2022-12-03T07:23:04.914Z,14.30
2022-12-03T07:24:04.880Z,14.90
2022-12-03T07:25:04.914Z,15.40
2022-12-03T07:26:04.904Z,14.60
2022-12-03T07:27:04.839Z,14.80
2022-12-03T07:28:04.850Z,15.20
2022-12-03T07:29:04.815Z,14.60
2022-12-03T07:30:04.796Z,14.60
2022-12-03T07:31:04.840Z,15.00
2022-12-03T07:32:04.805Z,16.70
2022-12-03T07:33:04.763Z,17.20
2022-12-03T07:34:04.750Z,23.20
2022-12-03T07:35:04.836Z,18.00
2022-12-03T07:36:04.724Z,15.70
2022-12-03T07:37:04.716Z,15.00
2022-12-03T07:38:04.721Z,16.00
2022-12-03T07:39:04.710Z,16.00
2022-12-03T07:40:04.668Z,15.30
2022-12-03T07:41:04.700Z,16.20
2022-12-03T07:42:04.643Z,14.80
2022-12-03T07:43:04.641Z,15.10
2022-12-03T07:44:07.834Z,15.50
2022-12-03T07:45:04.612Z,15.50
2022-12-03T07:46:04.623Z,14.70
2022-12-03T07:47:04.657Z,13.70
2022-12-03T07:48:04.577Z,14.90
2022-12-03T07:49:04.599Z,14.90
2022-12-03T07:50:04.564Z,15.00
2022-12-03T07:51:04.532Z,15.50
2022-12-03T07:52:04.540Z,15.10
2022-12-03T07:53:04.549Z,14.90
2022-12-03T07:54:04.502Z,14.30
2022-12-03T07:55:04.485Z,14.70
2022-12-03T07:56:04.468Z,14.10
2022-12-03T07:57:04.455Z,13.70
2022-12-03T07:58:04.461Z,14.50
2022-12-03T07:59:04.442Z,15.50
2022-12-03T08:00:04.434Z,21.90
2022-12-03T08:01:04.482Z,21.80
2022-12-03T08:02:04.436Z,28.60
2022-12-03T08:03:04.382Z,32.80
2022-12-03T08:04:04.367Z,32.70
2022-12-03T08:05:04.354Z,26.40
2022-12-03T08:06:04.350Z,22.90
2022-12-03T08:07:04.328Z,16.60
2022-12-03T08:08:04.356Z,15.50
2022-12-03T08:09:04.317Z,15.30
2022-12-03T08:10:04.287Z,15.30
2022-12-03T08:11:04.316Z,15.10
2022-12-03T08:12:04.261Z,17.20
2022-12-03T08:13:04.261Z,30.00
2022-12-03T08:14:04.236Z,23.50
2022-12-03T08:15:04.250Z,21.60
2022-12-03T08:16:04.253Z,25.80
2022-12-03T08:17:04.204Z,25.40
2022-12-03T08:18:04.193Z,21.20
2022-12-03T08:19:04.195Z,16.40
2022-12-03T08:20:04.159Z,14.50
2022-12-03T08:21:04.149Z,14.30
2022-12-03T08:22:04.142Z,14.60
2022-12-03T08:23:04.148Z,13.70
2022-12-03T08:24:04.113Z,14.20
2022-12-03T08:25:04.097Z,14.20
2022-12-03T08:26:04.081Z,14.40
2022-12-03T08:27:04.078Z,14.40
2022-12-03T08:28:04.073Z,13.80
2022-12-03T08:29:04.046Z,14.60
2022-12-03T08:30:04.030Z,15.00
2022-12-03T08:31:04.055Z,13.90
2022-12-03T08:32:04.050Z,15.30
2022-12-03T08:33:04.079Z,15.20
2022-12-03T08:34:03.984Z,14.90
2022-12-03T08:35:04.003Z,15.30
2022-12-03T08:36:03.976Z,14.60
2022-12-03T08:37:03.958Z,15.10
2022-12-03T08:38:03.959Z,14.60
2022-12-03T08:39:03.921Z,14.90
2022-12-03T08:40:03.917Z,15.00
2022-12-03T08:41:03.903Z,15.10
2022-12-03T08:42:05.947Z,14.60
2022-12-03T08:43:03.877Z,14.30
2022-12-03T08:44:03.852Z,15.90
2022-12-03T08:45:03.864Z,18.00
2022-12-03T08:46:03.922Z,17.40
2022-12-03T08:47:03.819Z,18.50
2022-12-03T08:48:03.812Z,15.90
2022-12-03T08:49:03.792Z,16.70
2022-12-03T08:50:03.778Z,20.40
2022-12-03T08:51:03.769Z,18.80
2022-12-03T08:52:03.773Z,17.90
2022-12-03T08:53:03.746Z,17.20
2022-12-03T08:54:03.737Z,18.00
2022-12-03T08:55:03.725Z,18.80
2022-12-03T08:56:03.710Z,19.10
2022-12-03T08:57:03.699Z,17.90
2022-12-03T08:58:03.670Z,23.00
2022-12-03T08:59:03.674Z,16.60
2022-12-03T09:00:03.647Z,17.80
2022-12-03T09:01:03.709Z,15.60
2022-12-03T09:02:03.634Z,15.20
2022-12-03T09:03:03.613Z,21.50
2022-12-03T09:04:03.737Z,33.60
2022-12-03T09:05:03.590Z,24.80
2022-12-03T09:06:03.572Z,21.50
2022-12-03T09:07:03.649Z,19.00
2022-12-03T09:08:03.592Z,19.30
2022-12-03T09:09:06.734Z,17.60
2022-12-03T09:10:03.524Z,16.40
2022-12-03T09:11:03.513Z,15.40
2022-12-03T09:12:03.571Z,15.30
2022-12-03T09:13:04.303Z,16.60
2022-12-03T09:14:03.487Z,20.90
2022-12-03T09:15:03.460Z,18.90
2022-12-03T09:16:03.475Z,16.60
2022-12-03T09:17:03.531Z,17.20
2022-12-03T09:18:03.425Z,15.10
2022-12-03T09:19:03.423Z,15.40
2022-12-03T09:20:03.411Z,15.00
2022-12-03T09:21:03.397Z,15.20
2022-12-03T09:22:03.367Z,15.90
2022-12-03T09:23:03.466Z,15.00
2022-12-03T09:24:03.371Z,15.00
2022-12-03T09:25:03.364Z,15.60
2022-12-03T09:26:03.371Z,15.90
2022-12-03T09:27:03.305Z,15.80
2022-12-03T09:28:03.295Z,14.90
2022-12-03T09:29:07.544Z,14.10
2022-12-03T09:30:03.280Z,14.40
2022-12-03T09:31:03.287Z,14.30
2022-12-03T09:32:03.405Z,14.70
2022-12-03T09:33:03.263Z,15.20
2022-12-03T09:34:03.230Z,15.40
2022-12-03T09:35:03.210Z,15.10
2022-12-03T09:36:03.226Z,14.40
2022-12-03T09:37:03.194Z,14.20
2022-12-03T09:38:03.174Z,14.70
2022-12-03T09:39:03.177Z,15.20
2022-12-03T09:40:03.153Z,14.10
2022-12-03T09:41:03.145Z,15.30
2022-12-03T09:42:03.127Z,14.80
2022-12-03T09:43:03.103Z,14.40
2022-12-03T09:44:04.717Z,14.70
2022-12-03T09:45:03.095Z,15.00
2022-12-03T09:46:03.152Z,14.60
2022-12-03T09:47:03.097Z,14.00
2022-12-03T09:48:03.091Z,14.10
2022-12-03T09:49:03.025Z,14.90
2022-12-03T09:50:03.045Z,14.50
2022-12-03T09:51:03.004Z,14.20
2022-12-03T09:52:02.990Z,13.60
2022-12-03T09:53:02.974Z,14.10
2022-12-03T09:54:02.987Z,14.40
2022-12-03T09:55:02.949Z,14.10
2022-12-03T09:56:02.944Z,13.80
2022-12-03T09:57:02.942Z,14.10
2022-12-03T09:58:02.916Z,15.20
2022-12-03T09:59:02.926Z,14.60
2022-12-03T10:00:02.894Z,13.90
2022-12-03T10:01:03.003Z,14.00
2022-12-03T10:02:03.007Z,14.20
2022-12-03T10:03:02.853Z,14.00
2022-12-03T10:04:02.864Z,14.10
2022-12-03T10:05:02.940Z,13.40
2022-12-03T10:06:02.807Z,13.90
2022-12-03T10:07:02.813Z,24.80
2022-12-03T10:08:02.857Z,19.10
2022-12-03T10:09:02.786Z,16.70
2022-12-03T10:10:02.766Z,15.00
2022-12-03T10:11:02.763Z,14.00
2022-12-03T10:12:02.779Z,14.00
2022-12-03T10:13:02.720Z,13.10
2022-12-03T10:14:02.746Z,14.10
2022-12-03T10:15:02.703Z,15.20
2022-12-03T10:16:02.691Z,21.70
2022-12-03T10:17:02.732Z,18.40
2022-12-03T10:18:02.687Z,24.10
2022-12-03T10:19:02.652Z,28.20
2022-12-03T10:20:02.643Z,24.20
2022-12-03T10:21:02.616Z,16.80
2022-12-03T10:22:02.623Z,15.90
2022-12-03T10:23:02.596Z,13.90
2022-12-03T10:24:02.594Z,13.10
2022-12-03T10:25:02.570Z,13.60
2022-12-03T10:26:02.556Z,12.90
2022-12-03T10:27:02.550Z,13.60
2022-12-03T10:28:02.554Z,13.60
2022-12-03T10:29:02.524Z,13.50
2022-12-03T10:30:02.509Z,13.10
2022-12-03T10:31:02.613Z,14.00
2022-12-03T10:32:02.493Z,12.90
2022-12-03T10:33:02.507Z,14.20
2022-12-03T10:34:02.453Z,14.50
2022-12-03T10:35:02.459Z,14.80
2022-12-03T10:36:02.429Z,14.00
2022-12-03T10:37:02.414Z,13.60
2022-12-03T10:38:02.414Z,13.30
2022-12-03T10:39:02.398Z,17.90
2022-12-03T10:40:02.375Z,16.80
2022-12-03T10:41:02.371Z,14.00
2022-12-03T10:42:02.377Z,13.60
2022-12-03T10:43:02.363Z,13.40
2022-12-03T10:44:02.323Z,13.00
2022-12-03T10:45:02.336Z,12.30
2022-12-03T10:46:04.453Z,12.00
2022-12-03T10:47:02.427Z,13.00
2022-12-03T10:48:02.305Z,13.00
2022-12-03T10:49:02.258Z,12.70
2022-12-03T10:50:02.245Z,12.80
2022-12-03T10:51:02.259Z,12.60
2022-12-03T10:52:02.249Z,11.90
2022-12-03T10:53:02.246Z,12.20
2022-12-03T10:54:02.205Z,12.50
2022-12-03T10:55:02.197Z,12.30
2022-12-03T10:56:02.182Z,12.40
2022-12-03T10:57:02.162Z,12.90
2022-12-03T10:58:02.151Z,12.10
2022-12-03T10:59:02.164Z,12.30
2022-12-03T11:00:02.132Z,11.90
2022-12-03T11:01:02.151Z,13.80
2022-12-03T11:02:02.205Z,13.40
2022-12-03T11:03:02.082Z,14.10
2022-12-03T11:04:02.150Z,13.60
2022-12-03T11:05:02.083Z,13.90
2022-12-03T11:06:02.054Z,12.90
2022-12-03T11:07:02.029Z,14.00
2022-12-03T11:08:02.160Z,13.50
2022-12-03T11:09:08.355Z,13.80
2022-12-03T11:10:02.020Z,13.20
2022-12-03T11:11:01.978Z,13.20
2022-12-03T11:12:01.986Z,13.60
2022-12-03T11:13:01.974Z,12.80
2022-12-03T11:14:01.953Z,13.60
2022-12-03T11:15:01.954Z,12.90
2022-12-03T11:16:01.962Z,14.00
2022-12-03T11:17:01.921Z,13.20
2022-12-03T11:18:01.890Z,20.60
2022-12-03T11:19:01.894Z,15.20
2022-12-03T11:20:01.874Z,14.90
2022-12-03T11:21:01.848Z,14.00
2022-12-03T11:22:01.847Z,13.70
2022-12-03T11:23:01.837Z,13.50
2022-12-03T11:24:01.850Z,13.60
2022-12-03T11:25:01.809Z,13.60
2022-12-03T11:26:01.826Z,13.70
2022-12-03T11:27:01.775Z,14.40
2022-12-03T11:28:01.769Z,14.40
2022-12-03T11:29:01.755Z,16.90
2022-12-03T11:30:01.851Z,16.50
2022-12-03T11:31:01.792Z,14.00
2022-12-03T11:32:01.744Z,21.40
2022-12-03T11:33:01.711Z,15.20
2022-12-03T11:34:01.708Z,13.80
2022-12-03T11:35:01.676Z,14.10
2022-12-03T11:36:01.663Z,13.20
2022-12-03T11:37:02.230Z,13.90
2022-12-03T11:38:01.641Z,14.50
2022-12-03T11:39:01.627Z,13.80
2022-12-03T11:40:01.768Z,14.40
2022-12-03T11:41:01.617Z,14.60
2022-12-03T11:42:01.588Z,13.40
2022-12-03T11:43:01.572Z,13.70
2022-12-03T11:44:01.574Z,13.50
2022-12-03T11:45:01.623Z,13.60
2022-12-03T11:46:04.366Z,13.00
2022-12-03T11:47:02.082Z,13.10
2022-12-03T11:48:01.554Z,13.00
2022-12-03T11:49:01.491Z,13.70
2022-12-03T11:50:01.638Z,12.60
2022-12-03T11:51:01.475Z,12.70
2022-12-03T11:52:01.478Z,12.60
2022-12-03T11:53:01.457Z,13.50
2022-12-03T11:54:01.435Z,12.60
2022-12-03T11:55:01.415Z,15.50
2022-12-03T11:56:04.561Z,18.40
2022-12-03T11:57:01.396Z,19.80
2022-12-03T11:58:01.387Z,20.60
2022-12-03T11:59:01.381Z,28.70
2022-12-03T12:00:01.359Z,19.30
2022-12-03T12:01:01.379Z,17.20
2022-12-03T12:02:01.343Z,16.80
2022-12-03T12:03:01.365Z,16.00
2022-12-03T12:04:01.338Z,15.60
2022-12-03T12:05:01.421Z,15.10
2022-12-03T12:06:01.290Z,15.50
2022-12-03T12:07:01.263Z,15.60
2022-12-03T12:08:01.414Z,17.00
2022-12-03T12:09:01.236Z,22.50
2022-12-03T12:10:01.403Z,17.80
2022-12-03T12:11:01.216Z,18.10
2022-12-03T12:12:01.234Z,16.10
2022-12-03T12:13:01.204Z,15.80
2022-12-03T12:14:01.198Z,15.90
2022-12-03T12:15:01.275Z,15.40
2022-12-03T12:16:01.206Z,14.70
2022-12-03T12:17:01.141Z,16.00
2022-12-03T12:18:01.125Z,15.90
2022-12-03T12:19:01.124Z,15.90
2022-12-03T12:20:01.115Z,15.40
2022-12-03T12:21:01.118Z,15.10
2022-12-03T12:22:01.093Z,15.50
2022-12-03T12:23:01.097Z,14.50
2022-12-03T12:24:01.091Z,15.60
2022-12-03T12:25:01.030Z,15.90
2022-12-03T12:26:01.021Z,16.10
2022-12-03T12:27:01.018Z,15.60
2022-12-03T12:28:01.019Z,16.10
2022-12-03T12:29:00.984Z,16.30
2022-12-03T12:30:00.977Z,16.60
2022-12-03T12:31:01.045Z,15.80
2022-12-03T12:32:01.065Z,15.60
2022-12-03T12:33:00.942Z,15.60
2022-12-03T12:34:00.953Z,14.90
2022-12-03T12:35:00.910Z,14.50
2022-12-03T12:36:00.907Z,15.80
2022-12-03T12:37:00.893Z,15.80
2022-12-03T12:38:00.921Z,16.60
2022-12-03T12:39:00.891Z,17.20
2022-12-03T12:40:00.851Z,16.70
2022-12-03T12:41:00.872Z,15.40
2022-12-03T12:42:00.836Z,15.70
2022-12-03T12:43:04.134Z,14.90
2022-12-03T12:44:00.812Z,14.50
2022-12-03T12:45:00.788Z,14.10
2022-12-03T12:46:13.538Z,14.90
2022-12-03T12:47:00.832Z,14.50
2022-12-03T12:48:00.758Z,14.90
2022-12-03T12:49:00.748Z,14.40
2022-12-03T12:50:00.720Z,14.80
2022-12-03T12:51:00.735Z,14.30
2022-12-03T12:52:00.713Z,14.40
2022-12-03T12:53:00.676Z,14.50
2022-12-03T12:54:00.676Z,14.80
2022-12-03T12:55:04.952Z,14.90
2022-12-03T12:56:00.665Z,15.30
2022-12-03T12:57:00.667Z,14.90
2022-12-03T12:58:00.642Z,14.70
2022-12-03T12:59:00.633Z,14.90
2022-12-03T13:00:00.593Z,15.10